createdAt,value
2018-12-17T00:01:20.362Z,77.86
2018-12-17T00:03:48.984Z,77.46
2018-12-17T00:06:17.681Z,77.95
2018-12-17T00:08:46.426Z,77.64
2018-12-17T00:11:15.728Z,78.09
2018-12-17T00:13:44.472Z,77.13
2018-12-17T00:16:13.164Z,77.79
2018-12-17T00:18:42.009Z,77.84
2018-12-17T00:21:10.735Z,76.98
2018-12-17T00:23:39.353Z,77.67
2018-12-17T00:26:07.987Z,78.41
2018-12-17T00:28:36.669Z,77.25
2018-12-17T00:31:05.425Z,77.89
2018-12-17T00:33:34.076Z,77.17
2018-12-17T00:36:02.782Z,76.48
2018-12-17T00:38:31.390Z,77.32
2018-12-17T00:41:00.031Z,77.17
2018-12-17T00:43:29.813Z,77.26
2018-12-17T00:45:58.665Z,77.72
2018-12-17T00:48:27.505Z,77.81
2018-12-17T00:50:56.127Z,76.70
2018-12-17T00:53:24.830Z,77.06
2018-12-17T00:55:53.488Z,77.70
2018-12-17T00:58:22.103Z,76.96
2018-12-17T01:00:50.743Z,78.73
2018-12-17T01:03:19.372Z,77.35
2018-12-17T01:05:48.000Z,76.69
2018-12-17T01:08:17.146Z,76.82
2018-12-17T01:10:45.780Z,76.22
2018-12-17T01:13:14.392Z,75.72
2018-12-17T01:15:43.076Z,76.65
2018-12-17T01:18:11.745Z,77.52
2018-12-17T01:20:40.377Z,75.87
2018-12-17T01:23:09.022Z,76.69
2018-12-17T01:25:37.649Z,76.75
2018-12-17T01:28:06.260Z,77.29
2018-12-17T01:30:34.901Z,77.54
2018-12-17T01:33:03.554Z,76.35
2018-12-17T01:35:32.175Z,76.74
2018-12-17T01:38:00.771Z,77.48
2018-12-17T01:40:29.515Z,77.44
2018-12-17T01:42:58.112Z,77.60
2018-12-17T01:45:26.798Z,77.78
2018-12-17T01:47:55.424Z,76.32
2018-12-17T01:50:24.191Z,77.06
2018-12-17T01:52:52.791Z,76.49
2018-12-17T01:55:21.617Z,76.64
2018-12-17T01:57:50.336Z,76.56
2018-12-17T02:00:19.169Z,76.42
2018-12-17T02:02:47.753Z,75.85
2018-12-17T02:05:16.508Z,75.73
2018-12-17T02:07:45.109Z,76.45
2018-12-17T02:10:13.728Z,76.10
2018-12-17T02:12:42.439Z,76.37
2018-12-17T02:15:11.324Z,76.17
2018-12-17T02:17:40.018Z,76.15
2018-12-17T02:20:08.664Z,76.69
2018-12-17T02:22:37.275Z,75.58
2018-12-17T02:25:06.231Z,75.71
2018-12-17T02:27:34.857Z,75.57
2018-12-17T02:30:03.809Z,76.84
2018-12-17T02:32:32.436Z,76.52
2018-12-17T02:35:01.064Z,76.76
2018-12-17T02:37:29.673Z,76.31
2018-12-17T02:39:58.313Z,76.32
2018-12-17T02:42:26.995Z,75.75
2018-12-17T02:44:55.709Z,76.28
2018-12-17T02:47:24.352Z,76.43
2018-12-17T02:49:53.064Z,75.80
2018-12-17T02:52:21.659Z,76.46
2018-12-17T02:54:50.341Z,76.54
2018-12-17T02:57:19.005Z,77.08
2018-12-17T02:59:47.708Z,76.62
2018-12-17T03:02:16.501Z,76.35
2018-12-17T03:04:45.280Z,75.65
2018-12-17T03:07:13.952Z,76.64
2018-12-17T03:09:42.656Z,77.35
2018-12-17T03:12:11.329Z,78.19
2018-12-17T03:14:39.942Z,77.83
2018-12-17T03:17:08.540Z,76.89
2018-12-17T03:19:37.200Z,76.72
2018-12-17T03:22:05.810Z,76.39
2018-12-17T03:24:35.226Z,76.27
2018-12-17T03:27:03.850Z,76.01
2018-12-17T03:29:32.563Z,76.15
2018-12-17T03:32:01.733Z,75.56
2018-12-17T03:34:30.462Z,75.68
2018-12-17T03:36:59.076Z,76.34
2018-12-17T03:39:27.812Z,75.71
2018-12-17T03:41:56.412Z,76.12
2018-12-17T03:44:25.291Z,75.87
2018-12-17T03:46:54.173Z,76.39
2018-12-17T03:49:22.781Z,76.22
2018-12-17T03:51:51.395Z,76.55
2018-12-17T03:54:20.027Z,76.93
2018-12-17T03:56:48.747Z,75.89
2018-12-17T03:59:17.398Z,75.83
2018-12-17T04:01:46.029Z,75.76
2018-12-17T04:04:14.683Z,75.67
2018-12-17T04:06:43.403Z,75.84
2018-12-17T04:09:12.049Z,75.96
2018-12-17T04:11:40.647Z,76.04
2018-12-17T04:14:09.387Z,75.69
2018-12-17T04:16:38.120Z,77.03
2018-12-17T04:19:06.744Z,76.25
2018-12-17T04:21:35.375Z,76.10
2018-12-17T04:24:04.216Z,75.93
2018-12-17T04:26:32.868Z,75.94
2018-12-17T04:29:06.743Z,75.83
2018-12-17T04:31:32.276Z,75.54
2018-12-17T04:34:00.969Z,76.08
2018-12-17T04:36:29.594Z,76.13
2018-12-17T04:38:58.272Z,75.44
2018-12-17T04:41:26.903Z,76.24
2018-12-17T04:43:55.724Z,76.53
2018-12-17T04:46:24.357Z,77.08
2018-12-17T04:48:53.100Z,77.15
2018-12-17T04:51:21.863Z,77.47
2018-12-17T04:53:50.559Z,77.31
2018-12-17T04:56:19.166Z,77.97
2018-12-17T04:58:48.048Z,78.48
2018-12-17T05:01:16.648Z,78.08
2018-12-17T05:03:45.283Z,79.23
2018-12-17T05:06:13.871Z,78.27
2018-12-17T05:08:42.530Z,77.77
2018-12-17T05:11:11.243Z,78.52
2018-12-17T05:13:39.959Z,78.51
2018-12-17T05:16:08.633Z,78.39
2018-12-17T05:18:37.292Z,78.43
2018-12-17T05:21:06.067Z,78.26
2018-12-17T05:23:34.691Z,77.56
2018-12-17T05:26:03.298Z,77.68
2018-12-17T05:28:31.970Z,77.73
2018-12-17T05:31:01.112Z,78.29
2018-12-17T05:33:29.879Z,78.11
2018-12-17T05:35:59.179Z,78.06
2018-12-17T05:38:27.845Z,77.41
2018-12-17T05:40:57.020Z,78.03
2018-12-17T05:43:25.835Z,78.24
2018-12-17T05:45:54.468Z,77.96
2018-12-17T05:48:23.102Z,77.99
2018-12-17T05:50:51.832Z,78.95
2018-12-17T05:53:20.498Z,78.97
2018-12-17T05:55:49.316Z,79.35
2018-12-17T05:58:17.965Z,79.93
2018-12-17T06:00:46.628Z,80.06
2018-12-17T06:03:15.262Z,79.22
2018-12-17T06:05:43.883Z,81.66
2018-12-17T06:08:13.443Z,81.61
2018-12-17T06:10:42.189Z,81.60
2018-12-17T06:13:10.974Z,81.65
2018-12-17T06:15:39.667Z,81.09
2018-12-17T06:18:08.400Z,80.91
2018-12-17T06:20:37.015Z,81.12
2018-12-17T06:23:05.709Z,81.31
2018-12-17T06:25:34.579Z,81.24
2018-12-17T06:28:03.378Z,81.81
2018-12-17T06:30:32.052Z,81.90
2018-12-17T06:33:00.709Z,82.08
2018-12-17T06:35:29.472Z,81.88
2018-12-17T06:37:58.119Z,81.81
2018-12-17T06:40:26.763Z,81.53
2018-12-17T06:42:55.387Z,81.75
2018-12-17T06:45:24.117Z,81.97
2018-12-17T06:47:52.767Z,81.17
2018-12-17T06:50:21.386Z,80.52
2018-12-17T06:52:50.122Z,81.77
2018-12-17T06:55:18.825Z,81.58
2018-12-17T06:57:47.799Z,81.44
2018-12-17T07:00:16.396Z,80.59
2018-12-17T07:02:45.243Z,80.71
2018-12-17T07:05:13.860Z,79.92
2018-12-17T07:07:42.520Z,81.93
2018-12-17T07:10:11.140Z,81.38
2018-12-17T07:12:39.895Z,81.25
2018-12-17T07:15:08.646Z,81.31
2018-12-17T07:17:37.295Z,81.70
2018-12-17T07:20:06.433Z,80.13
2018-12-17T07:22:35.164Z,80.38
2018-12-17T07:25:04.344Z,81.12
2018-12-17T07:27:33.082Z,81.22
2018-12-17T07:30:01.913Z,81.33
2018-12-17T07:32:30.609Z,81.44
2018-12-17T07:34:59.247Z,80.88
2018-12-17T07:37:28.354Z,82.15
2018-12-17T07:39:57.198Z,81.07
2018-12-17T07:42:25.843Z,81.79
2018-12-17T07:44:54.521Z,82.19
2018-12-17T07:47:23.136Z,82.42
2018-12-17T07:49:51.795Z,82.85
2018-12-17T07:52:20.500Z,82.31
2018-12-17T07:54:49.174Z,82.15
2018-12-17T07:57:17.879Z,81.71
2018-12-17T07:59:46.483Z,81.00
2018-12-17T08:02:15.253Z,81.00
2018-12-17T08:04:43.855Z,80.55
2018-12-17T08:07:12.520Z,80.11
2018-12-17T08:09:41.174Z,80.61
2018-12-17T08:12:09.780Z,81.73
2018-12-17T08:14:38.401Z,80.81
2018-12-17T08:17:07.196Z,80.39
2018-12-17T08:19:35.827Z,80.63
2018-12-17T08:22:04.527Z,82.02
2018-12-17T08:24:33.210Z,81.61
2018-12-17T08:27:01.960Z,80.59
2018-12-17T08:29:30.631Z,79.93
2018-12-17T08:31:59.352Z,80.29
2018-12-17T08:34:29.223Z,80.24
2018-12-17T08:36:57.904Z,80.41
2018-12-17T08:39:26.502Z,80.68
2018-12-17T08:41:55.203Z,79.66
2018-12-17T08:44:23.811Z,81.70
2018-12-17T08:46:52.490Z,80.40
2018-12-17T08:49:21.078Z,79.64
2018-12-17T08:51:49.834Z,80.04
2018-12-17T08:54:18.549Z,80.97
2018-12-17T08:56:47.323Z,80.77
2018-12-17T08:59:15.938Z,80.75
2018-12-17T09:01:44.691Z,79.68
2018-12-17T09:04:13.411Z,79.49
2018-12-17T09:06:42.133Z,80.10
2018-12-17T09:09:10.887Z,78.81
2018-12-17T09:11:39.615Z,80.97
2018-12-17T09:14:08.234Z,80.59
2018-12-17T09:16:36.994Z,80.63
2018-12-17T09:19:05.629Z,80.45
2018-12-17T09:21:34.359Z,79.94
2018-12-17T09:24:02.963Z,79.76
2018-12-17T09:26:31.942Z,79.17
2018-12-17T09:29:00.585Z,79.83
2018-12-17T09:31:29.506Z,78.78
2018-12-17T09:33:58.129Z,79.08
2018-12-17T09:36:26.808Z,78.41
2018-12-17T09:38:55.452Z,78.22
2018-12-17T09:41:24.304Z,76.80
2018-12-17T09:43:52.899Z,77.92
2018-12-17T09:46:21.627Z,78.22
2018-12-17T09:48:50.313Z,76.65
2018-12-17T09:51:19.733Z,77.10
2018-12-17T09:53:48.888Z,78.07
2018-12-17T09:56:17.601Z,78.20
2018-12-17T09:58:46.271Z,76.74
2018-12-17T10:01:15.050Z,77.42
2018-12-17T10:03:43.739Z,76.21
2018-12-17T10:06:12.459Z,77.36
2018-12-17T10:08:41.227Z,76.68
2018-12-17T10:11:09.870Z,77.13
2018-12-17T10:13:38.495Z,78.05
2018-12-17T10:16:07.379Z,77.18
2018-12-17T10:18:38.400Z,77.39
2018-12-17T10:21:07.135Z,77.40
2018-12-17T10:23:36.060Z,77.70
2018-12-17T10:26:04.855Z,77.81
2018-12-17T10:28:33.603Z,77.63
2018-12-17T10:31:02.303Z,78.04
2018-12-17T10:33:30.953Z,77.80
2018-12-17T10:35:59.566Z,77.46
2018-12-17T10:38:28.176Z,77.05
2018-12-17T10:40:56.852Z,76.30
2018-12-17T10:43:25.471Z,75.29
2018-12-17T10:45:54.213Z,75.34
2018-12-17T10:48:22.823Z,75.31
2018-12-17T10:50:51.595Z,74.57
2018-12-17T10:53:20.213Z,74.12
2018-12-17T10:55:48.947Z,74.82
2018-12-17T10:58:17.638Z,73.41
2018-12-17T11:00:51.629Z,73.17
2018-12-17T11:03:24.416Z,74.79
2018-12-17T11:05:54.549Z,75.05
2018-12-17T11:08:23.343Z,74.03
2018-12-17T11:10:52.043Z,74.36
2018-12-17T11:13:20.711Z,74.18
2018-12-17T11:15:49.379Z,74.40
2018-12-17T11:18:18.022Z,73.63
2018-12-17T11:20:46.912Z,74.33
2018-12-17T11:23:15.538Z,73.61
2018-12-17T11:25:44.464Z,73.27
2018-12-17T11:28:13.322Z,73.81
2018-12-17T11:30:46.533Z,73.66
2018-12-17T11:33:19.155Z,72.40
2018-12-17T11:35:47.792Z,72.52
2018-12-17T11:38:16.668Z,71.68
2018-12-17T11:40:45.412Z,71.74
2018-12-17T11:43:14.055Z,70.87
2018-12-17T11:45:42.930Z,70.72
2018-12-17T11:48:11.599Z,70.23
2018-12-17T11:50:40.366Z,71.03
2018-12-17T11:53:09.067Z,70.87
2018-12-17T11:55:37.824Z,70.61
2018-12-17T11:58:12.246Z,69.88
2018-12-17T12:00:44.601Z,69.12
2018-12-17T12:03:13.214Z,69.00
2018-12-17T12:05:41.893Z,68.37
2018-12-17T12:08:10.640Z,68.02
2018-12-17T12:10:39.285Z,67.53
2018-12-17T12:13:08.028Z,66.87
2018-12-17T12:15:36.842Z,65.87
2018-12-17T12:18:05.675Z,65.82
2018-12-17T12:20:35.186Z,65.13
2018-12-17T12:23:03.819Z,65.24
2018-12-17T12:25:32.513Z,66.33
2018-12-17T12:28:01.327Z,67.29
2018-12-17T12:30:30.197Z,67.20
2018-12-17T12:32:59.860Z,67.16
2018-12-17T12:35:28.570Z,68.15
2018-12-17T12:37:58.639Z,69.33
2018-12-17T12:40:27.587Z,70.27
2018-12-17T12:42:56.336Z,69.87
2018-12-17T12:45:25.057Z,70.12
2018-12-17T12:47:53.910Z,69.78
2018-12-17T12:50:22.786Z,69.82
2018-12-17T12:52:51.515Z,70.07
2018-12-17T12:55:20.271Z,69.82
2018-12-17T12:57:48.868Z,70.55
2018-12-17T13:00:17.553Z,72.33
2018-12-17T13:02:46.484Z,70.09
2018-12-17T13:05:15.125Z,70.02
2018-12-17T13:07:44.052Z,70.78
2018-12-17T13:10:13.333Z,71.02
2018-12-17T13:12:42.184Z,70.98
2018-12-17T13:15:11.162Z,71.84
2018-12-17T13:17:39.779Z,70.70
2018-12-17T13:20:10.016Z,70.37
2018-12-17T13:22:39.039Z,70.08
2018-12-17T13:25:14.808Z,69.81
2018-12-17T13:27:43.523Z,70.18
2018-12-17T13:30:12.273Z,70.61
2018-12-17T13:32:40.904Z,70.77
2018-12-17T13:35:10.093Z,70.23
2018-12-17T13:37:38.702Z,70.01
2018-12-17T13:40:09.659Z,70.13
2018-12-17T13:42:38.253Z,70.25
2018-12-17T13:45:07.396Z,70.75
2018-12-17T13:47:36.029Z,71.37
2018-12-17T13:50:10.145Z,70.19
2018-12-17T13:52:44.022Z,70.60
2018-12-17T13:55:12.787Z,70.77
2018-12-17T13:57:41.389Z,70.00
2018-12-17T14:00:11.851Z,70.22
2018-12-17T14:02:40.612Z,70.37
2018-12-17T14:05:09.496Z,71.55
2018-12-17T14:07:38.136Z,72.11
2018-12-17T14:10:14.605Z,71.50
2018-12-17T14:12:43.472Z,70.67
2018-12-17T14:15:12.227Z,70.29
2018-12-17T14:17:44.943Z,71.28
2018-12-17T14:20:19.187Z,71.42
2018-12-17T14:22:47.808Z,71.18
2018-12-17T14:25:16.447Z,70.38
2018-12-17T14:27:45.105Z,70.36
2018-12-17T14:30:14.093Z,70.12
2018-12-17T14:32:42.815Z,70.28
2018-12-17T14:35:11.548Z,71.39
2018-12-17T14:37:45.596Z,70.94
2018-12-17T14:40:14.429Z,70.99
2018-12-17T14:42:43.136Z,70.38
2018-12-17T14:45:12.124Z,70.21
2018-12-17T14:47:40.787Z,70.38
2018-12-17T14:50:09.399Z,70.44
2018-12-17T14:52:38.073Z,70.94
2018-12-17T14:55:08.184Z,70.34
2018-12-17T14:57:36.894Z,71.17
2018-12-17T15:00:07.741Z,71.08
2018-12-17T15:02:36.353Z,71.58
2018-12-17T15:05:05.591Z,71.13
2018-12-17T15:07:34.352Z,71.65
2018-12-17T15:10:03.152Z,72.09
2018-12-17T15:12:31.923Z,72.37
2018-12-17T15:15:00.670Z,74.10
2018-12-17T15:17:29.281Z,73.53
2018-12-17T15:19:57.913Z,73.32
2018-12-17T15:22:26.627Z,72.78
2018-12-17T15:24:55.286Z,73.50
2018-12-17T15:27:24.356Z,72.90
2018-12-17T15:29:53.011Z,74.04
2018-12-17T15:32:21.668Z,73.98
2018-12-17T15:34:50.351Z,73.81
2018-12-17T15:37:18.944Z,74.30
2018-12-17T15:39:47.580Z,75.53
2018-12-17T15:42:16.651Z,75.06
2018-12-17T15:44:45.347Z,75.64
2018-12-17T15:47:14.882Z,74.90
2018-12-17T15:49:43.989Z,75.41
2018-12-17T15:52:12.640Z,75.72
2018-12-17T15:54:41.403Z,76.56
2018-12-17T15:57:10.151Z,76.67
2018-12-17T15:59:39.559Z,76.35
2018-12-17T16:02:08.391Z,76.93
2018-12-17T16:04:37.100Z,78.23
2018-12-17T16:07:05.720Z,78.57
2018-12-17T16:09:34.398Z,76.95
2018-12-17T16:12:03.008Z,79.62
2018-12-17T16:14:31.685Z,79.55
2018-12-17T16:17:00.293Z,80.83
2018-12-17T16:19:29.176Z,80.37
2018-12-17T16:21:57.804Z,81.08
2018-12-17T16:24:26.439Z,81.86
2018-12-17T16:26:55.091Z,80.24
2018-12-17T16:29:23.793Z,81.49
2018-12-17T16:31:57.269Z,81.25
2018-12-17T16:34:23.126Z,82.99
2018-12-17T16:36:52.071Z,83.33
2018-12-17T16:39:20.714Z,82.57
2018-12-17T16:41:49.444Z,84.22
2018-12-17T16:44:18.088Z,83.68
2018-12-17T16:46:46.953Z,84.11
2018-12-17T16:49:15.677Z,85.44
2018-12-17T16:51:44.299Z,85.46
2018-12-17T16:54:13.063Z,85.71
2018-12-17T16:56:41.990Z,85.42
2018-12-17T16:59:10.625Z,84.58
2018-12-17T17:01:39.253Z,84.17
2018-12-17T17:04:07.887Z,83.80
2018-12-17T17:06:36.524Z,85.09
2018-12-17T17:09:07.531Z,85.92
2018-12-17T17:11:36.390Z,84.37
2018-12-17T17:14:05.355Z,84.04
2018-12-17T17:16:34.073Z,85.38
2018-12-17T17:19:02.687Z,84.13
2018-12-17T17:21:31.303Z,84.06
2018-12-17T17:24:00.136Z,84.89
2018-12-17T17:26:28.839Z,83.53
2018-12-17T17:28:57.479Z,85.03
2018-12-17T17:31:26.156Z,85.06
2018-12-17T17:33:55.198Z,84.78
2018-12-17T17:36:23.824Z,85.41
2018-12-17T17:38:52.543Z,85.69
2018-12-17T17:41:21.199Z,86.39
2018-12-17T17:43:49.941Z,86.00
2018-12-17T17:46:18.623Z,85.63
2018-12-17T17:48:47.447Z,84.48
2018-12-17T17:51:16.435Z,83.80
2018-12-17T17:53:45.070Z,84.80
2018-12-17T17:56:13.693Z,84.40
2018-12-17T17:58:42.623Z,83.87
2018-12-17T18:01:11.225Z,83.71
2018-12-17T18:03:39.884Z,82.69
2018-12-17T18:06:08.572Z,82.28
2018-12-17T18:08:37.203Z,82.42
2018-12-17T18:11:05.861Z,82.24
2018-12-17T18:13:34.670Z,81.14
2018-12-17T18:16:09.469Z,81.65
2018-12-17T18:18:38.168Z,80.63
2018-12-17T18:21:06.883Z,81.25
2018-12-17T18:23:35.503Z,82.28
2018-12-17T18:26:04.143Z,82.89
2018-12-17T18:28:32.803Z,82.45
2018-12-17T18:31:01.413Z,81.99
2018-12-17T18:33:30.141Z,82.09
2018-12-17T18:35:58.876Z,81.85
2018-12-17T18:38:27.503Z,81.87
2018-12-17T18:40:56.148Z,82.66
2018-12-17T18:43:24.806Z,83.00
2018-12-17T18:45:53.527Z,82.88
2018-12-17T18:48:22.183Z,83.11
2018-12-17T18:50:50.883Z,82.49
2018-12-17T18:53:19.559Z,82.56
2018-12-17T18:55:48.220Z,82.37
2018-12-17T18:58:16.890Z,82.33
2018-12-17T19:00:45.584Z,82.85
2018-12-17T19:03:14.237Z,82.13
2018-12-17T19:05:42.891Z,81.29
2018-12-17T19:08:11.545Z,82.21
2018-12-17T19:10:46.061Z,81.94
2018-12-17T19:13:15.055Z,81.90
2018-12-17T19:15:43.666Z,82.14
2018-12-17T19:18:12.397Z,82.39
2018-12-17T19:20:40.992Z,81.89
2018-12-17T19:23:09.804Z,82.67
2018-12-17T19:25:38.440Z,82.13
2018-12-17T19:28:07.059Z,82.72
2018-12-17T19:30:35.681Z,82.22
2018-12-17T19:33:04.337Z,82.92
2018-12-17T19:35:33.086Z,82.77
2018-12-17T19:38:01.807Z,82.44
2018-12-17T19:40:30.463Z,83.29
2018-12-17T19:42:59.096Z,82.76
2018-12-17T19:45:27.703Z,83.03
2018-12-17T19:47:56.347Z,83.54
2018-12-17T19:50:25.029Z,84.51
2018-12-17T19:52:53.700Z,83.95
2018-12-17T19:55:22.389Z,83.28
2018-12-17T19:57:51.044Z,83.16
2018-12-17T20:00:19.647Z,83.00
2018-12-17T20:02:48.460Z,82.82
2018-12-17T20:05:17.076Z,83.77
2018-12-17T20:07:45.769Z,83.59
2018-12-17T20:10:19.671Z,82.31
2018-12-17T20:12:48.428Z,83.24
2018-12-17T20:15:17.051Z,84.03
2018-12-17T20:17:45.663Z,85.18
2018-12-17T20:20:14.277Z,83.65
2018-12-17T20:22:42.992Z,83.77
2018-12-17T20:25:11.733Z,83.38
2018-12-17T20:27:40.492Z,83.63
2018-12-17T20:30:11.124Z,82.63
2018-12-17T20:32:40.523Z,84.01
2018-12-17T20:35:10.163Z,84.74
2018-12-17T20:37:38.771Z,83.23
2018-12-17T20:40:09.395Z,82.44
2018-12-17T20:42:38.041Z,83.13
2018-12-17T20:45:08.787Z,83.60
2018-12-17T20:47:37.983Z,84.24
2018-12-17T20:50:07.659Z,84.49
2018-12-17T20:52:36.307Z,84.74
2018-12-17T20:55:05.763Z,83.93
2018-12-17T20:57:34.480Z,83.28
2018-12-17T21:00:03.408Z,83.24
2018-12-17T21:02:32.028Z,81.92
2018-12-17T21:05:00.690Z,81.48
2018-12-17T21:07:29.488Z,81.37
2018-12-17T21:09:59.864Z,81.83
2018-12-17T21:12:28.580Z,81.92
2018-12-17T21:14:57.310Z,81.67
2018-12-17T21:17:26.289Z,81.63
2018-12-17T21:19:54.912Z,81.54
2018-12-17T21:22:23.546Z,81.23
2018-12-17T21:24:52.387Z,80.92
2018-12-17T21:27:21.184Z,80.72
2018-12-17T21:29:49.803Z,80.84
2018-12-17T21:32:18.472Z,81.97
2018-12-17T21:34:47.502Z,82.81
2018-12-17T21:37:16.504Z,82.42
2018-12-17T21:39:45.220Z,81.83
2018-12-17T21:42:13.913Z,81.19
2018-12-17T21:44:42.608Z,82.55
2018-12-17T21:47:11.256Z,82.56
2018-12-17T21:49:39.956Z,82.12
2018-12-17T21:52:08.896Z,81.04
2018-12-17T21:54:37.559Z,82.64
2018-12-17T21:57:07.017Z,82.70
2018-12-17T21:59:35.655Z,84.09
2018-12-17T22:02:04.479Z,83.76
2018-12-17T22:04:33.095Z,83.42
2018-12-17T22:07:01.711Z,82.61
2018-12-17T22:09:30.350Z,82.72
2018-12-17T22:11:58.996Z,81.75
2018-12-17T22:14:27.778Z,82.51
2018-12-17T22:16:56.411Z,82.27
2018-12-17T22:19:25.047Z,82.00
2018-12-17T22:21:53.653Z,82.26
2018-12-17T22:24:22.383Z,82.05
2018-12-17T22:26:51.046Z,83.71
2018-12-17T22:29:19.891Z,84.60
2018-12-17T22:31:48.644Z,85.69
2018-12-17T22:34:17.245Z,85.44
2018-12-17T22:36:45.956Z,86.36
2018-12-17T22:39:14.577Z,87.02
2018-12-17T22:41:43.224Z,85.74
2018-12-17T22:44:11.920Z,86.44
2018-12-17T22:46:40.649Z,87.36
2018-12-17T22:49:09.242Z,87.22
2018-12-17T22:51:38.041Z,87.11
2018-12-17T22:54:06.635Z,87.90
2018-12-17T22:56:35.378Z,87.69
2018-12-17T22:59:04.003Z,87.58
2018-12-17T23:01:32.709Z,86.79
2018-12-17T23:04:01.464Z,86.83
2018-12-17T23:06:30.186Z,86.29
2018-12-17T23:09:07.286Z,85.97
2018-12-17T23:18:49.711Z,83.57
2018-12-17T23:21:18.644Z,82.85
2018-12-17T23:23:47.439Z,82.76
2018-12-17T23:26:16.201Z,82.42
2018-12-17T23:28:44.894Z,82.58
2018-12-17T23:31:13.665Z,81.98
2018-12-17T23:33:42.299Z,82.78
2018-12-17T23:36:10.992Z,82.55
2018-12-17T23:38:39.725Z,82.99
2018-12-17T23:41:08.420Z,82.44
2018-12-17T23:43:37.093Z,81.49
2018-12-17T23:46:05.766Z,82.18
2018-12-17T23:48:34.387Z,82.62
2018-12-17T23:51:03.089Z,81.96
2018-12-17T23:53:31.732Z,81.44
2018-12-17T23:56:00.435Z,81.42
2018-12-17T23:58:29.222Z,81.28
